Time;durP1;ratioP1;P1;durP2;ratioP2;P2;SDS_P1;SDS_P2;PMS_P1;PMS_P2;Temp;Humidity;BMP_temperature;BMP_pressure;BME280_temperature;BME280_humidity;BME280_pressure;Samples;Min_cycle;Max_cycle;Signal;HPM_P1;HPM_P2
2021/09/15 00:01:39;;;;;;;0.73;0.73;;;17.00;99.90;;;;;;5036328;28;20420;-69
2021/09/15 00:04:05;;;;;;;1.13;0.83;;;17.00;99.90;;;;;;5037278;28;20185;-68
2021/09/15 00:06:31;;;;;;;0.40;0.20;;;17.00;99.90;;;;;;5035946;28;20288;-66
2021/09/15 00:08:57;;;;;;;0.60;0.40;;;17.00;99.90;;;;;;5035845;28;20571;-66
2021/09/15 00:11:23;;;;;;;1.17;1.03;;;17.10;99.90;;;;;;5036451;28;20606;-66
2021/09/15 00:13:49;;;;;;;1.73;1.17;;;17.10;99.90;;;;;;5036177;28;20631;-69
2021/09/15 00:16:14;;;;;;;0.40;0.20;;;17.20;99.90;;;;;;5035758;28;20432;-69
2021/09/15 00:18:40;;;;;;;1.47;1.13;;;17.30;99.90;;;;;;5035554;28;20455;-70
2021/09/15 00:21:06;;;;;;;1.00;0.60;;;17.20;99.90;;;;;;5035740;28;20260;-68
2021/09/15 00:23:31;;;;;;;1.07;0.47;;;17.00;99.90;;;;;;5018201;28;20623;-69
2021/09/15 00:25:57;;;;;;;0.50;0.47;;;17.00;99.90;;;;;;5035572;28;20268;-68
2021/09/15 00:28:22;;;;;;;0.40;0.20;;;16.90;99.90;;;;;;5035384;28;20599;-69
2021/09/15 00:30:48;;;;;;;1.27;0.67;;;16.90;99.90;;;;;;5035519;28;20212;-66
2021/09/15 00:33:13;;;;;;;2.40;1.23;;;16.90;99.90;;;;;;5035504;28;20185;-66
2021/09/15 00:35:39;;;;;;;1.43;1.13;;;16.80;99.90;;;;;;5035461;28;20579;-66
2021/09/15 00:38:05;;;;;;;0.40;0.20;;;16.80;99.90;;;;;;5036560;28;20581;-67
2021/09/15 00:40:30;;;;;;;1.20;1.03;;;16.80;99.90;;;;;;5036647;28;20535;-68
2021/09/15 00:42:56;;;;;;;1.00;0.57;;;16.80;99.90;;;;;;5020060;28;20212;-68
2021/09/15 00:45:22;;;;;;;4.07;0.87;;;16.90;99.90;;;;;;5035265;28;20185;-66
2021/09/15 00:47:47;;;;;;;0.97;0.87;;;16.80;99.90;;;;;;5035064;28;20296;-66
2021/09/15 00:50:14;;;;;;;0.40;0.13;;;16.80;99.90;;;;;;5034959;28;20205;-65
2021/09/15 00:52:40;;;;;;;0.85;0.85;;;16.80;99.90;;;;;;5035070;28;20181;-66
2021/09/15 00:55:06;;;;;;;0.70;0.50;;;16.80;99.90;;;;;;5035293;28;20610;-66
2021/09/15 00:57:32;;;;;;;1.80;0.97;;;16.90;99.90;;;;;;5034952;28;20177;-66
2021/09/15 00:59:57;;;;;;;0.40;0.20;;;16.80;99.90;;;;;;5034831;28;20424;-65
2021/09/15 01:02:23;;;;;;;1.93;1.03;;;16.70;99.90;;;;;;5034536;28;20190;-66
2021/09/15 01:04:48;;;;;;;1.37;1.27;;;16.80;99.90;;;;;;5034863;28;20391;-66
2021/09/15 01:07:14;;;;;;;0.50;0.40;;;16.80;99.90;;;;;;5034478;28;20209;-65
2021/09/15 01:09:40;;;;;;;0.60;0.47;;;16.80;99.90;;;;;;5034679;28;20182;-66
2021/09/15 01:12:09;;;;;;;1.00;0.97;;;16.80;99.90;;;;;;5034737;28;20889;-66
2021/09/15 01:14:37;;;;;;;0.70;0.50;;;16.80;99.90;;;;;;5034720;28;20421;-66
2021/09/15 01:17:02;;;;;;;0.60;0.40;;;16.70;99.90;;;;;;5034585;28;20903;-66
2021/09/15 01:19:28;;;;;;;3.23;1.53;;;16.70;99.90;;;;;;5034489;28;20427;-66
2021/09/15 01:21:54;;;;;;;0.60;0.43;;;16.70;99.90;;;;;;5034521;28;20614;-66
2021/09/15 01:24:21;;;;;;;0.60;0.43;;;16.80;99.90;;;;;;5034556;28;20185;-66
2021/09/15 01:26:47;;;;;;;1.40;1.27;;;16.80;99.90;;;;;;5034393;28;20482;-66
2021/09/15 01:29:18;;;;;;;0.40;0.20;;;16.80;99.90;;;;;;5034774;28;20865;-65
2021/09/15 01:32:04;;;;;;;0.40;0.20;;;16.70;99.90;;;;;;5034611;28;20425;-66
2021/09/15 01:34:36;;;;;;;0.40;0.20;;;16.70;99.90;;;;;;5034361;28;20574;-65
2021/09/15 01:37:03;;;;;;;1.97;1.60;;;16.80;99.90;;;;;;5034193;28;20443;-65
2021/09/15 01:39:28;;;;;;;0.40;0.20;;;16.80;99.90;;;;;;5034205;28;20428;-65
2021/09/15 01:42:04;;;;;;;0.80;0.57;;;16.80;99.90;;;;;;5034270;28;20896;-65
2021/09/15 01:44:34;;;;;;;0.40;0.20;;;16.80;99.90;;;;;;5034011;28;20466;-65
2021/09/15 01:47:01;;;;;;;0.55;0.55;;;16.80;99.90;;;;;;5034146;28;20467;-65
2021/09/15 01:49:29;;;;;;;0.50;0.37;;;16.80;99.90;;;;;;5033842;28;20630;-65
2021/09/15 01:51:55;;;;;;;2.93;1.23;;;16.80;99.90;;;;;;5034314;28;20424;-65
2021/09/15 01:54:20;;;;;;;0.80;0.77;;;16.70;99.90;;;;;;5034040;28;20447;-65
2021/09/15 01:56:46;;;;;;;1.53;1.07;;;16.70;99.90;;;;;;5016591;28;20459;-65
2021/09/15 01:59:11;;;;;;;0.63;0.50;;;16.60;99.90;;;;;;5033729;28;20644;-65
2021/09/15 02:01:37;;;;;;;0.70;0.30;;;16.70;99.90;;;;;;5034068;28;20182;-65
2021/09/15 02:04:02;;;;;;;2.03;1.83;;;16.60;99.90;;;;;;5033929;28;20240;-65
2021/09/15 02:06:28;;;;;;;0.60;0.47;;;16.60;99.90;;;;;;5033767;28;20232;-65
2021/09/15 02:08:53;;;;;;;0.83;0.83;;;16.60;99.90;;;;;;5033409;28;20220;-64
2021/09/15 02:11:19;;;;;;;6.43;1.70;;;16.60;99.90;;;;;;5034146;28;20215;-65
2021/09/15 02:13:44;;;;;;;0.40;0.20;;;16.60;99.90;;;;;;5033442;28;20284;-65
2021/09/15 02:16:10;;;;;;;2.10;1.10;;;16.60;99.90;;;;;;5033963;28;20191;-66
2021/09/15 02:18:36;;;;;;;0.47;0.23;;;16.70;99.90;;;;;;5033528;28;20598;-66
2021/09/15 02:21:01;;;;;;;0.60;0.30;;;16.60;99.90;;;;;;5033634;28;20186;-65
2021/09/15 02:23:27;;;;;;;1.00;0.37;;;16.50;99.90;;;;;;5033727;28;20192;-65
2021/09/15 02:25:52;;;;;;;1.53;0.60;;;16.50;99.90;;;;;;5015973;28;20186;-65
2021/09/15 02:28:18;;;;;;;0.40;0.20;;;16.50;99.90;;;;;;5033313;28;20177;-65
2021/09/15 02:30:43;;;;;;;0.53;0.40;;;16.60;99.90;;;;;;5033505;28;20254;-66
2021/09/15 02:33:09;;;;;;;2.30;1.17;;;16.60;99.90;;;;;;5033557;28;20271;-66
2021/09/15 02:35:34;;;;;;;1.17;0.93;;;16.50;99.90;;;;;;5033463;28;20602;-65
2021/09/15 02:38:00;;;;;;;2.30;2.10;;;16.50;99.90;;;;;;5033454;28;20181;-65
2021/09/15 02:40:25;;;;;;;0.40;0.20;;;16.60;99.90;;;;;;5033360;28;20272;-65
2021/09/15 02:42:51;;;;;;;0.40;0.20;;;16.60;99.90;;;;;;5033731;28;20265;-65
2021/09/15 02:45:16;;;;;;;1.03;1.00;;;16.70;99.90;;;;;;5033437;28;20189;-65
2021/09/15 02:47:42;;;;;;;0.40;0.23;;;16.60;99.90;;;;;;5033247;28;20221;-66
2021/09/15 02:50:08;;;;;;;0.73;0.67;;;16.60;99.90;;;;;;5033186;28;20209;-68
2021/09/15 02:52:33;;;;;;;0.53;0.30;;;16.50;99.90;;;;;;5033411;28;20188;-69
2021/09/15 02:54:59;;;;;;;0.83;0.83;;;16.40;99.90;;;;;;5033334;28;20511;-66
2021/09/15 02:57:24;;;;;;;0.63;0.63;;;16.40;99.90;;;;;;5033380;28;20236;-66
2021/09/15 02:59:50;;;;;;;2.00;0.90;;;16.40;99.90;;;;;;5015945;28;20615;-66
2021/09/15 03:02:15;;;;;;;0.40;0.20;;;16.40;99.90;;;;;;5033448;28;20177;-65
2021/09/15 03:04:41;;;;;;;0.40;0.20;;;16.60;99.90;;;;;;5015961;28;20199;-65
2021/09/15 03:07:06;;;;;;;0.40;0.10;;;16.80;99.90;;;;;;5032979;28;20209;-66
2021/09/15 03:09:32;;;;;;;0.40;0.40;;;16.80;99.90;;;;;;5033228;28;20251;-66
2021/09/15 03:11:57;;;;;;;2.20;1.03;;;16.60;99.90;;;;;;5033093;28;20256;-66
2021/09/15 03:14:24;;;;;;;2.08;1.98;;;16.40;99.90;;;;;;5033388;28;20227;-66
2021/09/15 03:16:50;;;;;;;2.40;0.87;;;16.20;99.90;;;;;;5033012;28;20192;-65
2021/09/15 03:19:15;;;;;;;0.40;0.20;;;16.30;99.90;;;;;;5032958;28;20185;-69
2021/09/15 03:21:41;;;;;;;0.53;0.20;;;16.30;99.90;;;;;;5033467;28;20182;-69
2021/09/15 03:24:07;;;;;;;0.40;0.20;;;16.30;99.90;;;;;;5000656;28;20181;-66
2021/09/15 03:26:33;;;;;;;0.40;0.20;;;16.30;99.90;;;;;;5018795;28;20263;-66
2021/09/15 03:28:58;;;;;;;0.40;0.20;;;16.40;99.90;;;;;;5036569;28;20260;-67
2021/09/15 03:31:24;;;;;;;0.40;0.10;;;16.40;99.90;;;;;;5036632;28;20188;-67
2021/09/15 03:33:49;;;;;;;1.87;1.57;;;16.60;99.90;;;;;;5036739;28;20169;-65
2021/09/15 03:36:15;;;;;;;1.17;0.93;;;16.40;99.90;;;;;;5036588;28;20181;-66
2021/09/15 03:38:40;;;;;;;1.37;1.27;;;16.30;99.90;;;;;;5036244;28;20264;-67
2021/09/15 03:41:06;;;;;;;0.50;0.40;;;16.20;99.90;;;;;;5036554;28;20184;-64
2021/09/15 03:43:32;;;;;;;0.40;0.20;;;16.10;99.90;;;;;;5036564;28;20173;-65
2021/09/15 03:45:57;;;;;;;0.40;0.10;;;16.30;99.90;;;;;;5036498;28;20251;-65
2021/09/15 03:48:23;;;;;;;0.40;0.20;;;16.40;99.90;;;;;;5036075;28;20208;-65
2021/09/15 03:50:48;;;;;;;1.43;1.33;;;16.20;99.90;;;;;;5036358;28;20178;-65
2021/09/15 03:53:14;;;;;;;0.40;0.20;;;16.10;99.90;;;;;;5036399;28;20602;-64
2021/09/15 03:55:40;;;;;;;0.40;0.20;;;16.20;99.90;;;;;;5036277;28;20251;-66
2021/09/15 03:58:05;;;;;;;0.50;0.40;;;16.10;99.90;;;;;;5018632;28;20185;-67
2021/09/15 04:00:31;;;;;;;1.57;1.47;;;16.10;99.90;;;;;;5036144;28;20209;-67
2021/09/15 04:02:56;;;;;;;0.73;0.67;;;16.00;99.90;;;;;;5036203;28;20676;-64
2021/09/15 04:05:22;;;;;;;0.67;0.53;;;16.00;99.90;;;;;;5036037;28;20234;-64
2021/09/15 04:07:47;;;;;;;0.40;0.30;;;15.90;99.90;;;;;;5035898;28;20216;-64
2021/09/15 04:10:13;;;;;;;0.40;0.33;;;15.90;99.90;;;;;;5036079;28;20178;-66
2021/09/15 04:12:38;;;;;;;0.50;0.50;;;15.90;99.90;;;;;;5037931;28;20271;-66
2021/09/15 04:15:05;;;;;;;0.40;0.20;;;16.00;99.90;;;;;;5037846;28;20243;-66
2021/09/15 04:17:30;;;;;;;1.15;0.85;;;16.10;99.90;;;;;;5037226;28;20215;-66
2021/09/15 04:19:56;;;;;;;1.47;0.87;;;16.00;99.90;;;;;;5036888;28;20177;-67
2021/09/15 04:22:22;;;;;;;0.50;0.47;;;16.00;99.90;;;;;;5037116;28;20182;-68
2021/09/15 04:33:02;;;;;;;0.40;0.20;;;16.10;99.90;;;;;;5037399;28;20199;-68
2021/09/15 04:35:28;;;;;;;1.30;1.30;;;16.10;99.90;;;;;;5036874;28;20629;-67
2021/09/15 04:37:54;;;;;;;0.40;0.25;;;16.10;99.90;;;;;;5036153;28;20173;-67
2021/09/15 04:40:20;;;;;;;0.40;0.20;;;16.20;99.90;;;;;;5036768;28;20539;-68
2021/09/15 04:42:45;;;;;;;0.80;0.80;;;16.10;99.90;;;;;;5037282;28;20423;-67
2021/09/15 04:45:11;;;;;;;1.37;0.80;;;16.00;99.90;;;;;;5035816;28;20181;-68
2021/09/15 04:47:37;;;;;;;1.23;1.20;;;15.90;99.90;;;;;;5035046;28;20201;-69
2021/09/15 04:50:03;;;;;;;0.40;0.20;;;15.80;99.90;;;;;;5037430;28;20200;-69
2021/09/15 04:52:29;;;;;;;0.30;0.20;;;15.90;99.90;;;;;;5037296;28;20174;-69
2021/09/15 04:54:54;;;;;;;0.80;0.80;;;15.90;99.90;;;;;;5037493;28;20188;-68
2021/09/15 04:57:20;;;;;;;0.30;0.20;;;15.80;99.90;;;;;;5036900;28;20185;-68
2021/09/15 04:59:45;;;;;;;0.50;0.47;;;15.90;99.90;;;;;;5036630;28;20181;-68
2021/09/15 05:02:11;;;;;;;0.40;0.20;;;15.80;99.90;;;;;;5037392;28;20277;-68
2021/09/15 05:04:36;;;;;;;0.40;0.20;;;15.90;99.90;;;;;;5037427;28;20194;-68
2021/09/15 05:07:02;;;;;;;0.40;0.30;;;16.10;99.90;;;;;;5036975;28;20284;-69
2021/09/15 05:09:27;;;;;;;0.40;0.40;;;16.00;99.90;;;;;;5036860;28;20545;-69
2021/09/15 05:11:53;;;;;;;2.00;1.73;;;16.00;99.90;;;;;;5019347;28;20210;-68
2021/09/15 05:14:18;;;;;;;1.03;0.83;;;16.00;99.90;;;;;;5036899;28;20177;-68
2021/09/15 05:16:44;;;;;;;1.50;1.40;;;16.00;99.90;;;;;;5037099;28;20207;-68
2021/09/15 05:19:09;;;;;;;0.73;0.73;;;15.90;99.90;;;;;;5036030;28;20178;-68
2021/09/15 05:21:35;;;;;;;0.50;0.30;;;15.90;99.90;;;;;;5036657;28;20181;-68
2021/09/15 05:24:01;;;;;;;1.03;0.73;;;15.80;99.90;;;;;;5036855;28;20245;-68
2021/09/15 05:26:27;;;;;;;0.30;0.20;;;15.90;99.90;;;;;;5036711;28;20213;-68
2021/09/15 05:28:53;;;;;;;0.40;0.13;;;16.00;99.90;;;;;;5035361;28;20197;-66
2021/09/15 05:31:19;;;;;;;0.83;0.80;;;16.10;99.90;;;;;;5034293;28;20427;-66
2021/09/15 05:33:44;;;;;;;0.70;0.70;;;16.20;99.90;;;;;;5034145;28;20602;-66
2021/09/15 05:36:10;;;;;;;0.60;0.33;;;16.10;99.90;;;;;;5022114;28;20529;-66
2021/09/15 05:38:35;;;;;;;0.40;0.20;;;16.20;99.90;;;;;;5024547;28;20624;-66
2021/09/15 05:41:01;;;;;;;0.53;0.53;;;16.20;99.90;;;;;;5017156;28;20188;-66
2021/09/15 05:43:26;;;;;;;0.40;0.20;;;16.40;99.90;;;;;;5034163;28;20257;-66
2021/09/15 05:45:52;;;;;;;0.50;0.50;;;16.30;99.90;;;;;;5034046;28;20687;-66
2021/09/15 05:48:18;;;;;;;17.73;1.93;;;16.40;99.90;;;;;;5022943;28;20282;-68
2021/09/15 05:50:43;;;;;;;1.80;1.43;;;16.30;99.90;;;;;;5024393;28;20201;-68
2021/09/15 05:53:09;;;;;;;0.67;0.30;;;16.20;99.90;;;;;;5021593;28;20188;-69
2021/09/15 05:55:34;;;;;;;2.20;0.97;;;16.20;99.90;;;;;;5010795;28;20178;-69
2021/09/15 05:58:00;;;;;;;0.50;0.50;;;16.20;99.90;;;;;;5023037;28;20590;-69
2021/09/15 06:00:26;;;;;;;0.50;0.40;;;16.20;99.90;;;;;;5033856;28;20177;-69
2021/09/15 06:02:51;;;;;;;0.90;0.87;;;16.30;99.90;;;;;;5034015;28;20603;-69
2021/09/15 06:05:17;;;;;;;3.07;1.83;;;16.40;99.90;;;;;;5016453;28;20622;-69
2021/09/15 06:07:42;;;;;;;2.83;2.63;;;16.20;99.90;;;;;;5033512;28;20218;-69
2021/09/15 06:10:08;;;;;;;5.43;5.10;;;16.20;99.90;;;;;;5033953;28;20216;-70
2021/09/15 06:12:34;;;;;;;0.40;0.20;;;16.20;99.90;;;;;;5028685;28;20513;-71
2021/09/15 06:14:59;;;;;;;0.40;0.20;;;16.40;99.90;;;;;;5012232;28;20260;-68
2021/09/15 06:17:25;;;;;;;0.50;0.30;;;16.40;99.90;;;;;;5013600;28;20182;-67
2021/09/15 06:19:50;;;;;;;2.40;2.20;;;16.40;99.90;;;;;;5013799;28;20192;-71
2021/09/15 06:22:16;;;;;;;2.83;0.90;;;16.50;99.90;;;;;;5013516;28;20186;-69
2021/09/15 06:24:41;;;;;;;1.43;1.33;;;16.50;99.90;;;;;;5013769;28;20578;-69
2021/09/15 06:27:07;;;;;;;0.40;0.20;;;16.60;99.90;;;;;;5013437;28;20214;-69
2021/09/15 06:29:32;;;;;;;1.13;0.87;;;16.70;99.90;;;;;;5013596;28;20174;-69
2021/09/15 06:31:58;;;;;;;0.40;0.30;;;16.80;99.90;;;;;;5013717;28;20193;-69
2021/09/15 06:34:24;;;;;;;0.40;0.30;;;16.90;99.90;;;;;;5013570;28;20235;-69
2021/09/15 06:36:49;;;;;;;0.40;0.10;;;16.70;99.90;;;;;;5013819;28;20190;-69
2021/09/15 06:39:15;;;;;;;2.00;1.50;;;16.70;99.90;;;;;;5013478;28;20516;-69
2021/09/15 06:41:41;;;;;;;2.73;1.30;;;16.70;99.90;;;;;;5014269;28;20266;-69
2021/09/15 06:44:06;;;;;;;1.40;0.50;;;16.90;99.90;;;;;;5014623;28;20587;-69
2021/09/15 06:46:32;;;;;;;0.40;0.20;;;16.80;99.90;;;;;;5013743;28;20555;-69
2021/09/15 06:48:58;;;;;;;0.40;0.23;;;17.00;99.90;;;;;;5011256;28;20206;-68
2021/09/15 06:51:23;;;;;;;0.70;0.70;;;17.10;99.90;;;;;;5020345;28;20182;-68
2021/09/15 06:53:49;;;;;;;2.00;1.03;;;16.90;99.90;;;;;;5018843;28;20252;-68
2021/09/15 06:56:15;;;;;;;0.40;0.20;;;16.70;99.90;;;;;;5012427;28;20183;-68
2021/09/15 06:58:41;;;;;;;0.40;0.20;;;16.80;99.90;;;;;;5021652;28;20174;-67
2021/09/15 07:01:06;;;;;;;0.40;0.20;;;17.00;99.90;;;;;;5018144;28;20631;-67
2021/09/15 07:03:32;;;;;;;0.40;0.20;;;17.10;99.90;;;;;;5017327;28;20457;-67
2021/09/15 07:05:58;;;;;;;0.40;0.20;;;17.30;99.90;;;;;;5023525;28;20208;-67
2021/09/15 07:08:23;;;;;;;0.40;0.20;;;17.60;99.90;;;;;;5028394;28;20459;-67
2021/09/15 07:10:49;;;;;;;0.40;0.20;;;17.80;99.90;;;;;;5034851;28;20182;-69
2021/09/15 07:13:14;;;;;;;0.40;0.30;;;18.00;99.90;;;;;;5028152;28;20185;-69
2021/09/15 07:15:40;;;;;;;0.40;0.20;;;17.80;99.90;;;;;;5027933;28;20231;-69
2021/09/15 07:18:06;;;;;;;1.53;1.13;;;18.00;99.90;;;;;;5025033;28;20204;-69
2021/09/15 07:20:32;;;;;;;1.23;1.13;;;17.70;99.90;;;;;;5036790;28;20217;-68
2021/09/15 07:23:00;;;;;;;0.60;0.37;;;17.50;99.90;;;;;;5019952;28;20460;-68
2021/09/15 07:25:26;;;;;;;0.40;0.20;;;17.40;99.90;;;;;;5017266;28;20522;-68
2021/09/15 07:27:51;;;;;;;0.40;0.20;;;17.60;99.90;;;;;;5016595;28;20527;-68
2021/09/15 07:30:17;;;;;;;1.13;1.13;;;17.70;99.90;;;;;;4999923;28;20178;-72
2021/09/15 07:32:43;;;;;;;1.37;1.07;;;17.60;99.90;;;;;;5024129;28;20600;-71
2021/09/15 07:35:10;;;;;;;0.70;0.40;;;17.60;99.90;;;;;;5028494;28;20274;-69
2021/09/15 07:37:36;;;;;;;0.73;0.73;;;17.50;99.90;;;;;;5036616;28;20249;-67
2021/09/15 07:40:04;;;;;;;0.73;0.40;;;17.20;99.90;;;;;;5036620;28;20428;-67
2021/09/15 07:42:29;;;;;;;0.40;0.20;;;17.20;99.90;;;;;;5036915;28;20458;-67
2021/09/15 07:44:55;;;;;;;0.50;0.50;;;17.30;99.90;;;;;;5036347;28;20432;-68
2021/09/15 07:47:20;;;;;;;1.90;1.80;;;17.60;99.90;;;;;;5036378;28;20213;-68
2021/09/15 07:49:47;;;;;;;0.43;0.30;;;17.50;99.90;;;;;;5036162;28;20273;-69
2021/09/15 07:52:13;;;;;;;0.40;0.20;;;17.10;99.90;;;;;;5036943;28;20182;-67
2021/09/15 07:54:39;;;;;;;0.97;0.97;;;17.00;99.90;;;;;;5022936;28;20453;-67
2021/09/15 07:57:05;;;;;;;3.07;1.17;;;17.10;99.90;;;;;;5032167;28;20444;-68
2021/09/15 07:59:31;;;;;;;1.67;1.57;;;17.00;99.90;;;;;;5035143;28;20435;-68
2021/09/15 08:01:58;;;;;;;0.50;0.40;;;17.00;99.90;;;;;;5018575;28;20185;-67
2021/09/15 08:04:23;;;;;;;0.40;0.20;;;16.90;99.90;;;;;;5017083;28;20197;-67
2021/09/15 08:06:49;;;;;;;0.50;0.20;;;16.90;99.90;;;;;;5016034;28;20469;-68
2021/09/15 08:09:14;;;;;;;2.23;1.80;;;16.90;99.90;;;;;;5016036;28;20178;-71
2021/09/15 08:11:40;;;;;;;0.60;0.57;;;17.00;99.90;;;;;;5023436;28;20177;-66
2021/09/15 08:14:10;;;;;;;0.40;0.20;;;17.20;99.90;;;;;;5026190;28;20210;-67
2021/09/15 08:16:38;;;;;;;0.40;0.20;;;17.40;99.90;;;;;;5009697;28;20216;-68
2021/09/15 08:19:04;;;;;;;1.87;1.77;;;17.60;99.90;;;;;;5033973;28;20889;-68
2021/09/15 08:21:29;;;;;;;0.40;0.20;;;17.60;99.90;;;;;;5029666;28;20436;-68
2021/09/15 08:23:55;;;;;;;1.47;0.60;;;17.70;99.90;;;;;;5019588;28;20530;-68
2021/09/15 08:26:21;;;;;;;0.50;0.40;;;18.00;99.90;;;;;;5014971;28;20557;-68
2021/09/15 08:28:47;;;;;;;0.40;0.20;;;18.30;99.90;;;;;;5011722;28;20905;-68
2021/09/15 08:31:13;;;;;;;0.40;0.20;;;18.50;99.90;;;;;;5036521;28;20432;-69
2021/09/15 08:33:39;;;;;;;2.00;1.90;;;18.60;99.90;;;;;;5036017;28;20181;-69
2021/09/15 08:36:04;;;;;;;0.40;0.20;;;18.70;99.90;;;;;;5018542;28;20189;-70
2021/09/15 08:38:30;;;;;;;4.43;1.63;;;19.00;99.90;;;;;;5017659;28;20429;-71
2021/09/15 08:40:56;;;;;;;0.40;0.20;;;19.20;99.90;;;;;;5017431;28;20186;-67
2021/09/15 08:43:22;;;;;;;1.07;0.67;;;18.90;99.90;;;;;;4998281;28;20545;-67
2021/09/15 08:45:48;;;;;;;0.77;0.43;;;18.90;99.90;;;;;;5015988;28;20775;-66
2021/09/15 08:48:21;;;;;;;1.60;1.17;;;18.60;99.90;;;;;;5015428;28;20472;-65
2021/09/15 08:50:50;;;;;;;1.80;0.67;;;18.50;99.90;;;;;;5015826;28;20170;-65
2021/09/15 08:53:17;;;;;;;0.87;0.70;;;18.40;99.90;;;;;;5014300;28;20427;-66
2021/09/15 08:55:46;;;;;;;0.47;0.30;;;18.40;99.90;;;;;;5015354;28;20433;-68
2021/09/15 08:58:13;;;;;;;0.50;0.30;;;18.70;99.90;;;;;;5015485;28;20958;-68
2021/09/15 09:00:38;;;;;;;0.40;0.20;;;18.90;99.90;;;;;;4998063;28;20435;-68
2021/09/15 09:03:04;;;;;;;0.63;0.60;;;19.00;99.90;;;;;;5025617;28;20532;-67
2021/09/15 09:05:29;;;;;;;0.40;0.20;;;18.90;99.90;;;;;;5035068;28;20178;-68
2021/09/15 09:07:55;;;;;;;1.43;1.33;;;18.60;99.90;;;;;;5034960;28;20221;-68
2021/09/15 09:10:21;;;;;;;0.50;0.30;;;18.40;99.90;;;;;;5017983;28;20250;-67
2021/09/15 09:12:47;;;;;;;0.93;0.83;;;18.40;99.90;;;;;;5015336;28;20244;-67
2021/09/15 09:15:25;;;;;;;0.83;0.83;;;18.10;99.90;;;;;;5015434;28;20428;-72
2021/09/15 09:17:52;;;;;;;0.40;0.20;;;18.00;99.90;;;;;;5015677;28;20492;-74
2021/09/15 09:20:31;;;;;;;3.07;1.50;;;18.10;99.90;;;;;;5015669;28;20437;-68
2021/09/15 09:23:14;;;;;;;13.83;0.80;;;18.30;99.90;;;;;;5014907;28;20936;-70
2021/09/15 09:25:45;;;;;;;0.40;0.20;;;18.10;99.90;;;;;;5015190;28;20429;-67
2021/09/15 09:28:31;;;;;;;0.40;0.20;;;18.10;99.90;;;;;;4997418;28;20492;-68
2021/09/15 09:31:02;;;;;;;0.40;0.17;;;18.20;99.90;;;;;;5015241;28;20512;-67
2021/09/15 09:33:28;;;;;;;0.77;0.50;;;18.30;99.90;;;;;;5015280;28;20482;-68
2021/09/15 09:36:00;;;;;;;0.67;0.67;;;18.20;99.90;;;;;;5015153;28;20413;-70
2021/09/15 09:38:31;;;;;;;0.40;0.30;;;18.00;99.90;;;;;;5014869;28;20887;-68
2021/09/15 09:41:00;;;;;;;2.33;2.23;;;18.10;99.90;;;;;;5014653;28;20428;-67
2021/09/15 09:43:28;;;;;;;2.67;2.47;;;18.10;99.90;;;;;;5026979;28;20443;-66
2021/09/15 09:45:54;;;;;;;1.23;1.13;;;18.10;99.90;;;;;;5026516;28;20456;-67
2021/09/15 09:48:38;;;;;;;0.40;0.10;;;18.30;99.90;;;;;;5000901;28;20472;-67
2021/09/15 09:51:21;;;;;;;11.53;2.00;;;18.30;99.90;;;;;;5020137;28;20198;-68
2021/09/15 09:53:48;;;;;;;0.50;0.40;;;18.30;99.90;;;;;;5022176;28;20894;-68
2021/09/15 09:56:15;;;;;;;2.40;2.20;;;18.30;99.90;;;;;;5033129;28;20430;-68
2021/09/15 09:58:44;;;;;;;0.77;0.77;;;18.20;99.90;;;;;;5033607;28;20431;-66
2021/09/15 10:01:17;;;;;;;3.07;1.90;;;18.20;99.90;;;;;;5028298;28;20873;-66
2021/09/15 10:03:44;;;;;;;1.20;1.10;;;18.30;99.90;;;;;;5025069;28;20444;-66
2021/09/15 10:06:10;;;;;;;0.40;0.20;;;18.30;99.90;;;;;;5033026;28;20924;-66
2021/09/15 10:08:37;;;;;;;0.40;0.20;;;18.20;99.90;;;;;;5029221;28;20466;-68
2021/09/15 10:11:03;;;;;;;1.13;0.90;;;18.30;99.90;;;;;;5024656;28;20432;-63
2021/09/15 10:13:28;;;;;;;0.40;0.10;;;18.60;99.90;;;;;;5000347;28;20424;-69
2021/09/15 10:16:02;;;;;;;1.97;1.50;;;18.60;99.90;;;;;;5032091;28;20424;-68
2021/09/15 10:18:28;;;;;;;3.23;2.70;;;18.80;99.90;;;;;;5022460;28;20649;-68
2021/09/15 10:20:56;;;;;;;0.40;0.20;;;18.60;99.90;;;;;;5024897;28;20474;-69
2021/09/15 10:23:40;;;;;;;1.57;0.70;;;18.70;99.90;;;;;;5014352;28;20190;-68
2021/09/15 10:26:32;;;;;;;1.53;0.97;;;18.70;99.90;;;;;;5015673;28;20741;-67
2021/09/15 10:29:13;;;;;;;0.40;0.20;;;18.90;99.90;;;;;;5015941;28;20450;-67
2021/09/15 10:31:59;;;;;;;0.70;0.63;;;18.90;99.90;;;;;;5033858;28;20424;-69
2021/09/15 10:34:39;;;;;;;0.50;0.43;;;19.10;99.90;;;;;;5022164;28;20520;-67
2021/09/15 10:37:06;;;;;;;0.40;0.20;;;19.20;99.90;;;;;;5013735;28;20454;-66
2021/09/15 10:39:32;;;;;;;0.40;0.20;;;19.20;99.90;;;;;;5013852;28;20499;-65
2021/09/15 10:41:58;;;;;;;0.60;0.57;;;19.20;99.90;;;;;;5013880;28;20425;-65
2021/09/15 10:44:24;;;;;;;0.50;0.50;;;19.30;99.90;;;;;;5013586;28;20504;-67
2021/09/15 10:47:16;;;;;;;0.40;0.20;;;19.40;99.90;;;;;;5013501;28;20552;-67
2021/09/15 10:49:44;;;;;;;0.40;0.30;;;19.30;99.90;;;;;;5002617;28;20190;-67
2021/09/15 10:52:10;;;;;;;0.40;0.20;;;19.10;99.90;;;;;;5015972;28;20432;-67
2021/09/15 10:54:46;;;;;;;0.87;0.87;;;19.10;99.90;;;;;;5033702;28;20855;-67
2021/09/15 10:57:33;;;;;;;0.40;0.40;;;19.00;99.90;;;;;;5033575;28;20208;-68
2021/09/15 11:00:06;;;;;;;0.57;0.37;;;19.10;99.90;;;;;;5033240;28;20439;-66
2021/09/15 11:02:37;;;;;;;2.33;2.23;;;19.20;99.90;;;;;;5033641;28;20515;-64
2021/09/15 11:05:25;;;;;;;0.40;0.20;;;19.10;99.90;;;;;;5033629;28;20515;-64
2021/09/15 11:07:50;;;;;;;0.93;0.67;;;18.90;99.90;;;;;;5033504;28;20471;-65
2021/09/15 11:10:31;;;;;;;0.90;0.90;;;19.00;99.90;;;;;;5033122;28;20424;-65
2021/09/15 11:13:17;;;;;;;1.70;1.60;;;18.90;99.90;;;;;;5033144;28;20673;-66
2021/09/15 11:15:48;;;;;;;2.10;1.50;;;18.90;99.90;;;;;;4982263;28;20433;-64
2021/09/15 11:18:25;;;;;;;1.50;0.83;;;18.80;99.90;;;;;;5005218;28;20464;-64
2021/09/15 11:21:02;;;;;;;0.40;0.20;;;18.80;99.90;;;;;;5010300;28;20476;-63
2021/09/15 11:23:29;;;;;;;0.50;0.30;;;18.80;99.90;;;;;;5004217;28;20437;-66
2021/09/15 11:25:55;;;;;;;1.73;1.50;;;19.00;99.90;;;;;;5003051;28;20428;-63
2021/09/15 11:28:25;;;;;;;0.40;0.20;;;19.10;99.90;;;;;;5003142;28;20461;-64
2021/09/15 11:30:50;;;;;;;0.40;0.13;;;19.10;99.90;;;;;;4986381;28;20429;-63
2021/09/15 11:33:27;;;;;;;4.40;0.73;;;19.20;99.90;;;;;;5002775;28;20501;-63
2021/09/15 11:35:58;;;;;;;0.93;0.83;;;19.00;99.90;;;;;;5004662;28;20182;-63
2021/09/15 11:38:26;;;;;;;0.40;0.20;;;19.10;99.90;;;;;;5005305;28;20441;-64
2021/09/15 11:40:52;;;;;;;1.17;0.53;;;19.20;99.90;;;;;;5021620;28;20519;-64
2021/09/15 11:43:19;;;;;;;0.40;0.20;;;19.20;99.90;;;;;;5025316;28;20516;-66
2021/09/15 11:45:47;;;;;;;0.60;0.60;;;19.40;99.90;;;;;;5020316;28;20476;-66
2021/09/15 11:48:24;;;;;;;0.40;0.10;;;19.50;99.90;;;;;;5019343;28;20471;-66
2021/09/15 11:50:49;;;;;;;2.73;2.63;;;19.60;99.90;;;;;;5036597;28;20424;-65
2021/09/15 11:53:16;;;;;;;0.50;0.43;;;19.70;99.90;;;;;;5036616;28;20434;-66
2021/09/15 11:55:47;;;;;;;0.97;0.90;;;19.60;99.90;;;;;;5036760;28;20170;-66
2021/09/15 11:58:13;;;;;;;0.40;0.20;;;19.70;99.90;;;;;;5018854;28;20432;-66
2021/09/15 12:00:45;;;;;;;0.40;0.20;;;19.90;99.90;;;;;;5026987;28;20425;-66
2021/09/15 12:03:13;;;;;;;0.40;0.20;;;20.20;99.90;;;;;;5032923;28;20534;-65
2021/09/15 12:05:46;;;;;;;0.87;0.63;;;20.50;99.90;;;;;;5016858;28;20858;-65
2021/09/15 12:08:12;;;;;;;0.40;0.20;;;20.50;99.90;;;;;;5016543;28;20951;-67
2021/09/15 12:10:38;;;;;;;0.40;0.10;;;20.40;99.90;;;;;;5016817;28;20440;-67
2021/09/15 12:13:04;;;;;;;0.40;0.20;;;20.30;99.90;;;;;;5016656;28;20429;-70
2021/09/15 12:15:43;;;;;;;0.40;0.20;;;20.20;99.90;;;;;;5016681;28;20475;-68
2021/09/15 12:18:09;;;;;;;0.40;0.20;;;20.20;99.90;;;;;;5017116;28;20512;-66
2021/09/15 12:20:43;;;;;;;0.57;0.57;;;20.00;99.90;;;;;;5022282;28;20442;-65
2021/09/15 12:23:13;;;;;;;0.40;0.20;;;20.10;99.90;;;;;;5017202;28;20847;-65
2021/09/15 12:25:39;;;;;;;0.40;0.20;;;20.10;99.90;;;;;;5022606;28;20432;-67
2021/09/15 12:28:06;;;;;;;2.43;2.33;;;20.10;99.90;;;;;;5027025;28;20468;-67
2021/09/15 12:30:32;;;;;;;0.40;0.20;;;19.90;99.90;;;;;;5032761;28;20424;-67
2021/09/15 12:33:00;;;;;;;0.40;0.20;;;19.70;99.90;;;;;;5027126;28;20507;-68
2021/09/15 12:35:35;;;;;;;0.40;0.20;;;19.40;99.90;;;;;;5028003;28;20429;-68
2021/09/15 12:38:05;;;;;;;0.63;0.53;;;19.20;99.90;;;;;;5014498;28;20531;-68
2021/09/15 12:40:33;;;;;;;0.40;0.20;;;19.20;99.90;;;;;;5027230;28;20460;-68
2021/09/15 12:43:00;;;;;;;0.80;0.80;;;19.10;99.90;;;;;;5027119;28;20499;-68
2021/09/15 12:45:26;;;;;;;0.83;0.50;;;19.00;99.90;;;;;;5028464;28;20459;-68
2021/09/15 12:47:52;;;;;;;0.83;0.40;;;18.80;99.90;;;;;;5009225;28;20457;-66
2021/09/15 12:50:19;;;;;;;0.93;0.93;;;18.80;99.90;;;;;;4997840;28;20508;-67
2021/09/15 12:52:47;;;;;;;3.20;2.90;;;18.60;99.90;;;;;;5022443;28;20185;-66
2021/09/15 12:55:21;;;;;;;2.17;1.50;;;18.40;99.90;;;;;;5026811;28;20766;-65